Time;durP1;ratioP1;P1;durP2;ratioP2;P2;SDS_P1;SDS_P2;PMS_P1;PMS_P2;Temp;Humidity;BMP_temperature;BMP_pressure;BME280_temperature;BME280_humidity;BME280_pressure;Samples;Min_cycle;Max_cycle;Signal;HPM_P1;HPM_P2
2022/02/07 00:01:31;;;;;;;61.33;26.67;;;;;;;-2.26;67.11;98498.31;5094223;28;20064;-53
2022/02/07 00:03:59;;;;;;;57.08;25.15;;;;;;;-2.26;66.77;98472.09;5093062;28;20105;-53
2022/02/07 00:06:25;;;;;;;62.53;26.88;;;;;;;-2.19;66.68;98498.88;5093879;28;20492;-53
2022/02/07 00:08:52;;;;;;;57.88;25.85;;;;;;;-2.22;66.36;98483.31;5093614;28;20028;-49
2022/02/07 00:11:18;;;;;;;61.20;26.10;;;;;;;-2.27;66.21;98486.13;5092852;28;20449;-51
2022/02/07 00:13:44;;;;;;;57.55;25.52;;;;;;;-2.41;66.69;98491.19;5106416;28;20388;-57
2022/02/07 00:16:11;;;;;;;55.72;25.08;;;;;;;-2.45;67.37;98498.38;5114238;28;20027;-51
2022/02/07 00:18:38;;;;;;;58.28;25.52;;;;;;;-2.52;67.64;98484.72;5113713;28;20032;-54
2022/02/07 00:21:03;;;;;;;56.33;25.15;;;;;;;-2.48;67.78;98498.53;5111966;28;20032;-48
2022/02/07 00:23:29;;;;;;;58.63;24.98;;;;;;;-2.47;67.50;98487.97;5104141;28;20080;-47
2022/02/07 00:25:55;;;;;;;56.45;24.15;;;;;;;-2.43;67.66;98488.69;5093211;28;20039;-49
2022/02/07 00:28:20;;;;;;;51.50;24.10;;;;;;;-2.45;67.67;98480.88;5092889;28;20028;-48
2022/02/07 00:30:46;;;;;;;55.75;25.08;;;;;;;-2.49;67.57;98474.09;5092513;28;20020;-49
2022/02/07 00:33:12;;;;;;;56.60;24.58;;;;;;;-2.43;67.27;98472.09;5093777;28;20039;-51
2022/02/07 00:35:38;;;;;;;60.20;25.25;;;;;;;-2.45;67.62;98474.78;5092313;28;20481;-51
2022/02/07 00:38:10;;;;;;;53.60;23.50;;;;;;;-2.47;67.44;98472.25;5092442;28;20030;-50
2022/02/07 00:40:46;;;;;;;54.47;24.17;;;;;;;-2.48;67.78;98459.22;5092408;28;20036;-51
2022/02/07 00:43:26;;;;;;;54.35;24.00;;;;;;;-2.35;68.12;98477.81;5092656;28;20156;-52
2022/02/07 00:45:56;;;;;;;57.08;24.80;;;;;;;-2.23;67.36;98474.56;5110548;28;20035;-50
2022/02/07 00:48:24;;;;;;;57.45;24.02;;;;;;;-2.21;67.75;98466.63;5112598;28;20488;-50
2022/02/07 00:50:51;;;;;;;56.38;23.92;;;;;;;-2.08;67.13;98466.88;5110944;28;20036;-49
2022/02/07 00:53:16;;;;;;;51.47;23.85;;;;;;;-2.07;67.36;98453.66;5108078;28;20483;-57
2022/02/07 00:55:42;;;;;;;53.58;22.33;;;;;;;-1.97;66.35;98454.03;5096337;28;20032;-50
2022/02/07 00:58:08;;;;;;;48.65;22.95;;;;;;;-2.00;66.68;98440.25;5090288;28;20431;-52
2022/02/07 01:00:33;;;;;;;50.92;22.83;;;;;;;-1.98;66.91;98446.28;5090123;28;20020;-52
2022/02/07 01:03:00;;;;;;;51.03;22.38;;;;;;;-1.94;67.27;98463.53;5089497;28;20457;-50
2022/02/07 01:05:27;;;;;;;55.03;22.27;;;;;;;-1.96;67.35;98463.59;5096689;28;20088;-53
2022/02/07 01:07:54;;;;;;;54.33;22.90;;;;;;;-1.91;66.98;98464.25;5110605;28;20228;-56
2022/02/07 01:10:26;;;;;;;54.45;23.55;;;;;;;-1.92;66.68;98456.44;5111179;28;20031;-53
2022/02/07 01:15:43;;;;;;;51.28;22.42;;;;;;;-1.78;66.49;98442.59;5110581;28;20464;-53
2022/02/07 01:45:54;;;;;;;52.13;21.80;;;;;;;-1.87;66.92;98449.16;5092360;28;20028;-47
2022/02/07 01:56:44;;;;;;;44.05;19.50;;;;;;;-2.04;67.63;98429.94;5111319;28;20064;-50
2022/02/07 01:59:10;;;;;;;45.33;20.33;;;;;;;-2.04;68.01;98423.81;5093092;28;20032;-53
2022/02/07 02:01:37;;;;;;;44.90;20.50;;;;;;;-2.07;68.55;98431.84;5091547;28;20109;-48
2022/02/07 02:04:07;;;;;;;48.55;20.65;;;;;;;-2.08;68.73;98430.16;5091645;28;20043;-50
2022/02/07 02:06:35;;;;;;;46.97;20.48;;;;;;;-2.04;69.09;98434.31;5090698;28;20044;-48
2022/02/07 02:09:03;;;;;;;43.60;19.73;;;;;;;-2.03;69.02;98426.38;5092079;28;20040;-53
2022/02/07 02:11:29;;;;;;;44.90;19.98;;;;;;;-2.10;68.90;98398.75;5091662;28;20036;-49
2022/02/07 02:16:29;;;;;;;41.47;19.65;;;;;;;-1.86;68.41;98413.31;5091039;28;20030;-59
2022/02/07 02:45:37;;;;;;;25.85;12.68;;;;;;;-1.45;68.80;98408.47;5089532;28;20054;-48
2022/02/07 02:48:09;;;;;;;28.35;12.73;;;;;;;-1.38;68.78;98419.50;5094126;28;20020;-49
2022/02/07 02:50:36;;;;;;;25.67;12.32;;;;;;;-1.37;68.82;98415.94;5095143;28;20038;-53
2022/02/07 02:53:10;;;;;;;26.02;11.88;;;;;;;-1.30;69.55;98408.56;5094574;28;20028;-50
2022/02/07 02:55:38;;;;;;;26.42;12.38;;;;;;;-1.28;69.33;98408.47;5105146;28;20607;-48
2022/02/07 02:58:05;;;;;;;26.40;11.95;;;;;;;-1.25;69.52;98413.56;5114666;28;20028;-51
2022/02/07 03:00:32;;;;;;;28.13;11.52;;;;;;;-1.24;69.82;98408.22;5114771;28;20519;-50
2022/02/07 03:02:58;;;;;;;21.77;10.95;;;;;;;-1.21;69.42;98410.69;5115439;28;20048;-47
2022/02/07 03:05:24;;;;;;;20.13;10.20;;;;;;;-1.15;69.64;98409.50;5108892;28;20059;-52
2022/02/07 03:07:50;;;;;;;20.80;9.80;;;;;;;-1.25;69.93;98392.53;5094319;28;20028;-50
2022/02/07 03:10:26;;;;;;;16.25;8.48;;;;;;;-1.06;69.98;98401.09;5093346;28;20028;-49
2022/02/07 03:13:56;;;;;;;18.95;9.00;;;;;;;-0.96;69.77;98404.06;5093371;28;20121;-50
2022/02/07 03:18:34;;;;;;;20.55;9.48;;;;;;;-0.80;69.48;98406.66;5114891;28;20032;-49
2022/02/07 03:21:00;;;;;;;22.73;9.60;;;;;;;-0.78;68.98;98396.91;5114687;28;20192;-53
2022/02/07 03:23:26;;;;;;;21.70;8.88;;;;;;;-0.79;69.07;98394.38;5114323;28;20528;-51
2022/02/07 03:25:53;;;;;;;18.20;9.32;;;;;;;-0.76;69.53;98392.41;5112865;28;20032;-51
2022/02/07 03:28:21;;;;;;;18.15;9.60;;;;;;;-0.94;69.00;98357.53;5114676;28;20084;-49
2022/02/07 03:30:47;;;;;;;18.20;8.95;;;;;;;-0.75;69.41;98378.34;5114384;27;20036;-50
2022/02/07 03:33:13;;;;;;;19.33;9.18;;;;;;;-0.66;69.63;98386.66;5113862;28;20030;-50
2022/02/07 03:35:38;;;;;;;21.70;9.55;;;;;;;-0.61;69.35;98380.16;5114434;28;20475;-47
2022/02/07 03:38:06;;;;;;;20.05;9.43;;;;;;;-0.63;69.88;98373.31;5097272;28;20028;-48
2022/02/07 03:40:31;;;;;;;21.92;9.32;;;;;;;-0.48;68.55;98377.69;5094113;28;20055;-47
2022/02/07 03:42:57;;;;;;;20.85;9.48;;;;;;;-0.50;69.80;98383.97;5093489;28;20470;-50
2022/02/07 03:45:23;;;;;;;18.60;7.97;;;;;;;-0.47;69.39;98384.66;5093943;28;20081;-53
2022/02/07 03:47:49;;;;;;;16.48;8.38;;;;;;;-0.34;68.02;98376.88;5095203;28;20031;-49
2022/02/07 03:50:15;;;;;;;22.85;10.60;;;;;;;-0.47;69.10;98379.38;5093583;28;20154;-48
2022/02/07 03:52:40;;;;;;;20.02;9.73;;;;;;;-0.57;69.10;98367.69;5093071;28;20036;-53
2022/02/07 03:55:06;;;;;;;21.48;9.77;;;;;;;-0.54;69.62;98378.03;5093197;28;20032;-51
2022/02/07 03:57:32;;;;;;;20.15;10.10;;;;;;;-0.52;69.78;98372.69;5095103;28;20454;-51
2022/02/07 03:59:57;;;;;;;22.08;11.48;;;;;;;-0.46;69.04;98367.94;5112893;28;20043;-51
2022/02/07 04:02:23;;;;;;;20.58;9.73;;;;;;;-0.40;69.06;98379.03;5113387;28;20039;-50
2022/02/07 04:04:56;;;;;;;19.25;11.27;;;;;;;-0.44;69.34;98363.44;5113193;28;20036;-47
2022/02/07 04:07:22;;;;;;;27.75;11.52;;;;;;;-0.45;69.11;98359.09;5114400;28;20102;-51
2022/02/07 04:09:52;;;;;;;23.13;11.88;;;;;;;-0.44;69.78;98368.69;5103233;28;20108;-48
2022/02/07 04:12:22;;;;;;;22.17;11.13;;;;;;;-0.45;69.82;98361.75;5092859;28;20048;-49
2022/02/07 04:14:48;;;;;;;24.90;12.40;;;;;;;-0.46;69.62;98362.69;5091561;28;20039;-49
2022/02/07 04:17:19;;;;;;;20.45;11.05;;;;;;;-0.39;69.95;98360.50;5092277;28;20229;-51
2022/02/07 04:19:45;;;;;;;23.65;11.52;;;;;;;-0.31;68.89;98362.69;5103189;28;20111;-51
2022/02/07 04:22:11;;;;;;;21.88;12.55;;;;;;;-0.37;69.45;98357.81;5112848;28;20108;-49
2022/02/07 04:24:37;;;;;;;22.10;11.55;;;;;;;-0.36;69.52;98360.34;5111582;28;20035;-51
2022/02/07 04:27:03;;;;;;;26.30;11.88;;;;;;;-0.33;68.72;98351.41;5111111;28;20028;-50
2022/02/07 04:29:28;;;;;;;23.88;12.15;;;;;;;-0.32;69.44;98361.84;5105831;28;20035;-55
2022/02/07 04:31:54;;;;;;;23.98;12.68;;;;;;;-0.33;69.45;98354.91;5092627;28;20028;-53
2022/02/07 04:34:19;;;;;;;21.35;12.10;;;;;;;-0.35;69.20;98351.53;5092244;28;20032;-49
2022/02/07 04:36:49;;;;;;;29.48;12.20;;;;;;;-0.23;68.78;98352.56;5092559;28;20031;-51
2022/02/07 04:39:14;;;;;;;29.00;12.40;;;;;;;-0.26;69.29;98359.78;5093160;28;20051;-50
2022/02/07 04:41:41;;;;;;;22.77;12.07;;;;;;;-0.25;69.21;98351.78;5092812;28;20093;-53
2022/02/07 04:44:11;;;;;;;22.98;12.10;;;;;;;-0.25;69.15;98357.06;5092785;28;20077;-49
2022/02/07 04:52:19;;;;;;;25.45;12.25;;;;;;;-0.27;69.88;98363.34;5092315;28;20465;-50
2022/02/07 04:54:52;;;;;;;26.10;12.23;;;;;;;-0.28;69.52;98367.75;5091881;28;20035;-54
2022/02/07 05:03:03;;;;;;;25.35;12.07;;;;;;;-0.16;69.37;98359.16;5060433;28;20036;-50
2022/02/07 05:16:07;;;;;;;25.98;12.18;;;;;;;-0.03;69.42;98337.34;5094505;28;20083;-50
2022/02/07 05:18:32;;;;;;;24.65;12.07;;;;;;;0.01;69.51;98353.81;5091629;28;20047;-50
2022/02/07 05:20:58;;;;;;;22.85;10.60;;;;;;;-0.12;68.85;98317.72;5089773;28;20370;-52
2022/02/07 05:23:23;;;;;;;25.80;11.88;;;;;;;0.06;69.01;98347.31;5110035;28;20027;-50
2022/02/07 05:25:49;;;;;;;23.20;11.27;;;;;;;0.05;69.63;98342.13;5112128;28;20038;-53
2022/02/07 05:28:15;;;;;;;24.63;12.10;;;;;;;0.04;69.53;98345.72;5111676;28;20426;-49
2022/02/07 05:30:41;;;;;;;25.58;12.43;;;;;;;0.08;69.97;98342.81;5111770;28;20582;-50
2022/02/07 05:33:07;;;;;;;23.88;11.68;;;;;;;0.13;69.64;98346.00;5110360;28;20036;-50
2022/02/07 05:35:32;;;;;;;25.63;11.70;;;;;;;0.11;69.17;98336.50;5111239;28;20069;-53
2022/02/07 05:37:58;;;;;;;26.40;12.30;;;;;;;0.19;69.32;98341.28;5111541;28;20028;-52
2022/02/07 05:43:08;;;;;;;28.50;11.98;;;;;;;0.27;69.05;98358.31;5110416;28;20106;-50
2022/02/07 05:45:34;;;;;;;27.10;12.25;;;;;;;0.30;69.36;98349.38;5111571;28;20105;-55
2022/02/07 05:48:00;;;;;;;26.27;12.18;;;;;;;0.28;69.50;98344.19;5110348;28;20110;-49
2022/02/07 05:50:25;;;;;;;22.83;11.00;;;;;;;0.31;69.26;98355.47;5109762;28;20437;-52
2022/02/07 05:52:51;;;;;;;22.30;11.82;;;;;;;0.33;68.99;98351.81;5108987;28;20370;-50
2022/02/07 05:55:17;;;;;;;22.70;11.05;;;;;;;0.39;69.08;98351.44;5109958;28;20035;-49
2022/02/07 05:57:43;;;;;;;26.65;12.27;;;;;;;0.43;68.32;98350.28;5109699;28;20032;-51
2022/02/07 06:00:09;;;;;;;24.17;11.35;;;;;;;0.36;69.06;98346.34;5110524;28;20031;-52
2022/02/07 06:02:35;;;;;;;23.60;11.38;;;;;;;0.41;69.03;98344.28;5110490;28;20089;-50
2022/02/07 06:05:01;;;;;;;20.63;11.23;;;;;;;0.43;69.30;98326.59;5108800;28;20089;-56
2022/02/07 06:07:27;;;;;;;23.85;11.63;;;;;;;0.49;68.76;98340.34;5109713;28;20448;-52
2022/02/07 06:09:52;;;;;;;24.73;12.05;;;;;;;0.55;68.86;98340.78;5109804;28;20028;-53
2022/02/07 06:12:18;;;;;;;22.50;11.32;;;;;;;0.31;68.94;98314.22;5110143;28;20019;-49
2022/02/07 06:14:44;;;;;;;27.25;11.45;;;;;;;0.55;68.68;98340.78;5108924;28;20036;-52
2022/02/07 06:17:11;;;;;;;26.00;12.13;;;;;;;0.58;68.81;98337.09;5109533;28;20195;-59
2022/02/07 06:19:37;;;;;;;25.30;11.27;;;;;;;0.54;68.50;98338.25;5109797;28;20041;-54
2022/02/07 06:22:03;;;;;;;24.10;11.05;;;;;;;0.59;68.52;98338.81;5108138;28;20102;-60
2022/02/07 06:24:28;;;;;;;23.00;11.40;;;;;;;0.62;69.01;98343.03;5112641;27;20094;-49
2022/02/07 06:26:54;;;;;;;24.92;10.82;;;;;;;0.64;68.10;98346.41;5094567;28;20032;-54
2022/02/07 06:29:19;;;;;;;23.40;11.73;;;;;;;0.66;68.43;98347.16;5094492;28;20035;-54
2022/02/07 06:31:45;;;;;;;24.30;11.18;;;;;;;0.68;68.69;98335.56;5100844;28;20153;-52
2022/02/07 06:34:10;;;;;;;21.60;10.90;;;;;;;0.74;68.87;98334.34;5108808;28;20480;-56
2022/02/07 06:36:36;;;;;;;21.52;11.38;;;;;;;0.81;68.30;98343.53;5112031;28;20039;-55
2022/02/07 06:39:03;;;;;;;23.17;11.20;;;;;;;0.82;67.61;98341.75;5111426;28;20023;-54
2022/02/07 06:41:29;;;;;;;20.52;10.75;;;;;;;0.78;67.94;98342.91;5114242;28;20032;-52
2022/02/07 06:43:54;;;;;;;23.13;10.93;;;;;;;0.81;68.03;98350.59;5114279;28;20085;-54
2022/02/07 06:46:20;;;;;;;21.58;10.43;;;;;;;0.80;68.15;98348.91;5113599;28;20024;-53
2022/02/07 06:48:45;;;;;;;22.05;10.38;;;;;;;0.83;68.16;98344.28;5113891;28;20066;-51
2022/02/07 06:51:11;;;;;;;19.20;11.05;;;;;;;0.87;67.87;98339.66;5107984;28;20024;-50
2022/02/07 06:53:36;;;;;;;24.13;10.95;;;;;;;0.80;68.40;98336.56;5114532;28;20038;-55
2022/02/07 06:56:03;;;;;;;17.65;10.23;;;;;;;0.81;68.15;98327.72;5109961;28;20099;-55
2022/02/07 06:58:28;;;;;;;19.85;10.23;;;;;;;0.90;68.00;98336.00;5104485;28;20035;-49
2022/02/07 07:00:54;;;;;;;23.58;11.32;;;;;;;0.94;68.14;98335.69;5114610;28;20400;-50
2022/02/07 07:03:21;;;;;;;23.50;11.60;;;;;;;0.99;68.04;98335.38;5113983;28;20104;-52
2022/02/07 07:05:49;;;;;;;21.50;10.90;;;;;;;1.02;67.84;98339.63;5113569;28;20039;-55
2022/02/07 07:08:16;;;;;;;24.75;10.25;;;;;;;1.03;67.68;98330.78;5113360;28;20032;-56
2022/02/07 07:10:42;;;;;;;17.42;10.05;;;;;;;1.04;68.00;98335.91;5114345;28;20028;-54
2022/02/07 07:13:11;;;;;;;18.25;9.80;;;;;;;1.11;68.21;98333.72;5113262;27;20396;-52
2022/02/07 07:15:41;;;;;;;18.65;10.20;;;;;;;1.20;67.70;98332.28;5097089;28;20039;-53
2022/02/07 07:18:07;;;;;;;19.50;10.30;;;;;;;1.21;68.04;98337.47;5109001;28;20028;-52
2022/02/07 07:20:35;;;;;;;18.23;10.82;;;;;;;1.26;67.53;98334.50;5113557;28;20036;-56
2022/02/07 07:23:02;;;;;;;17.02;10.27;;;;;;;1.27;67.50;98342.34;5113530;28;20032;-55
2022/02/07 07:25:29;;;;;;;23.38;10.40;;;;;;;1.29;67.59;98337.81;5113017;28;20035;-51
2022/02/07 07:27:59;;;;;;;24.83;11.20;;;;;;;1.27;67.91;98338.84;5111932;28;20100;-54
2022/02/07 07:30:27;;;;;;;22.30;10.40;;;;;;;1.32;67.33;98338.53;5113124;28;20384;-53
2022/02/07 07:32:58;;;;;;;20.08;10.18;;;;;;;1.28;67.65;98322.06;5112279;28;20102;-56
2022/02/07 07:35:23;;;;;;;22.55;10.27;;;;;;;1.25;68.11;98323.13;5112309;28;20057;-55
2022/02/07 07:37:49;;;;;;;24.48;10.40;;;;;;;1.34;67.55;98320.81;5110945;28;20679;-55
2022/02/07 07:40:14;;;;;;;22.38;10.60;;;;;;;1.36;67.74;98326.84;5102148;28;20028;-56
2022/02/07 07:42:40;;;;;;;22.98;9.98;;;;;;;1.38;68.16;98333.72;5112576;28;20024;-51
2022/02/07 07:45:06;;;;;;;19.00;9.88;;;;;;;1.41;68.32;98327.38;5112506;28;20030;-51
2022/02/07 07:47:32;;;;;;;19.88;10.02;;;;;;;1.45;67.10;98323.59;5112888;28;20039;-52
2022/02/07 07:50:16;;;;;;;16.33;9.48;;;;;;;1.42;67.89;98334.31;5112469;28;20035;-50
2022/02/07 07:53:05;;;;;;;22.10;10.02;;;;;;;1.46;67.68;98324.44;5104384;28;20035;-52
2022/02/07 08:03:49;;;;;;;16.42;9.35;;;;;;;1.48;67.94;98333.94;5111311;28;20036;-50
2022/02/07 08:06:53;;;;;;;18.38;10.13;;;;;;;1.48;68.11;98336.56;5112785;28;20043;-52
2022/02/07 08:11:33;;;;;;;18.40;10.10;;;;;;;1.31;68.11;98287.59;5095323;28;20039;-48
2022/02/07 08:13:59;;;;;;;17.25;8.60;;;;;;;1.53;68.15;98336.25;5112439;28;20023;-51
2022/02/07 08:16:26;;;;;;;15.52;8.63;;;;;;;1.56;67.84;98328.13;5110513;28;20036;-53
2022/02/07 08:18:53;;;;;;;17.48;8.80;;;;;;;1.57;68.05;98321.94;5112190;28;20104;-54
2022/02/07 08:21:19;;;;;;;18.27;8.93;;;;;;;1.51;68.55;98325.81;5111720;28;20055;-53
2022/02/07 08:23:45;;;;;;;14.70;8.55;;;;;;;1.55;68.56;98329.06;5111948;28;20106;-54
2022/02/07 08:26:11;;;;;;;18.02;9.70;;;;;;;1.51;68.60;98312.63;5111199;28;20073;-50
2022/02/07 08:28:36;;;;;;;14.93;8.93;;;;;;;1.60;68.02;98323.50;5112014;28;20038;-54
2022/02/07 08:31:02;;;;;;;21.02;9.38;;;;;;;1.66;68.61;98321.28;5102212;28;20028;-55
2022/02/07 08:33:28;;;;;;;15.98;8.38;;;;;;;1.75;67.97;98330.38;5111106;28;20498;-52
2022/02/07 08:35:53;;;;;;;15.02;8.55;;;;;;;1.72;68.60;98323.50;5108663;28;20046;-54
2022/02/07 08:38:19;;;;;;;19.30;9.68;;;;;;;1.80;68.07;98320.34;5110646;28;20411;-49
2022/02/07 08:40:48;;;;;;;12.13;8.30;;;;;;;1.84;68.00;98329.72;5109125;28;20032;-52
2022/02/07 08:43:14;;;;;;;15.18;9.15;;;;;;;1.86;67.54;98327.81;5108279;28;20097;-49
2022/02/07 08:45:40;;;;;;;13.82;8.85;;;;;;;1.80;68.39;98330.91;5111248;28;20083;-52
2022/02/07 08:48:09;;;;;;;18.42;9.85;;;;;;;1.83;67.96;98354.44;5112370;28;20027;-52
2022/02/07 08:50:35;;;;;;;18.15;9.55;;;;;;;1.83;67.96;98325.41;5111410;28;20035;-52
2022/02/07 08:53:02;;;;;;;17.48;9.32;;;;;;;1.93;67.44;98328.25;5111392;28;20083;-51
2022/02/07 08:55:35;;;;;;;16.85;9.80;;;;;;;1.94;68.30;98332.59;5111633;28;20391;-50
2022/02/07 08:58:07;;;;;;;15.45;9.02;;;;;;;2.08;67.88;98336.91;5110316;28;20020;-53
2022/02/07 09:03:26;;;;;;;18.92;9.95;;;;;;;2.20;66.71;98324.63;5095662;28;20047;-54
2022/02/07 09:06:14;;;;;;;17.92;10.15;;;;;;;2.33;66.28;98323.78;5102874;28;20484;-50
2022/02/07 09:11:12;;;;;;;18.27;10.32;;;;;;;2.22;66.70;98321.91;5111238;28;20123;-49
2022/02/07 09:13:41;;;;;;;15.40;9.80;;;;;;;2.24;66.44;98323.47;5096355;28;20042;-53
2022/02/07 09:18:40;;;;;;;18.90;10.68;;;;;;;2.10;67.21;98319.16;5111201;28;20420;-50
2022/02/07 09:21:08;;;;;;;21.33;11.15;;;;;;;2.12;66.64;98321.72;5111082;28;20024;-50
2022/02/07 09:23:35;;;;;;;18.17;10.60;;;;;;;2.05;66.91;98328.34;5103237;28;20038;-51
2022/02/07 09:26:01;;;;;;;19.23;10.70;;;;;;;2.05;67.22;98313.34;5111426;28;20563;-52
2022/02/07 09:28:27;;;;;;;18.73;11.13;;;;;;;1.95;66.51;98288.56;5109426;28;20027;-53
2022/02/07 09:30:53;;;;;;;18.80;11.80;;;;;;;1.99;66.85;98279.47;5110837;28;20465;-52
2022/02/07 09:33:20;;;;;;;20.50;10.80;;;;;;;2.23;66.37;98294.53;5107240;28;20024;-56
2022/02/07 09:35:47;;;;;;;20.75;10.77;;;;;;;2.34;66.47;98314.91;5111510;28;20035;-47
2022/02/07 09:38:12;;;;;;;19.48;11.55;;;;;;;2.38;66.14;98306.63;5111284;28;20024;-52
2022/02/07 09:40:38;;;;;;;19.90;11.07;;;;;;;2.50;65.51;98312.84;5110670;28;20051;-52
2022/02/07 09:43:05;;;;;;;22.08;12.25;;;;;;;2.60;64.89;98309.56;5111135;28;20413;-53
2022/02/07 09:45:38;;;;;;;21.70;11.57;;;;;;;2.58;65.51;98318.44;5093732;28;20401;-51
2022/02/07 09:48:06;;;;;;;26.10;11.75;;;;;;;2.63;65.38;98326.00;5103017;28;20024;-54
2022/02/07 09:50:32;;;;;;;22.60;11.85;;;;;;;2.69;64.92;98316.81;5101144;28;20465;-55
2022/02/07 09:52:58;;;;;;;22.63;11.52;;;;;;;2.75;64.50;98323.44;5110712;28;20065;-52
2022/02/07 09:55:24;;;;;;;26.80;12.68;;;;;;;2.71;65.17;98321.03;5110844;28;20027;-53
2022/02/07 09:57:53;;;;;;;21.60;11.63;;;;;;;2.73;64.64;98315.63;5109107;28;20035;-51
2022/02/07 10:00:29;;;;;;;19.52;10.90;;;;;;;2.73;65.00;98305.91;5109010;28;20427;-53
2022/02/07 10:05:50;;;;;;;19.77;11.50;;;;;;;2.93;64.02;98306.25;5094895;28;20051;-56
2022/02/07 10:11:36;;;;;;;24.67;11.77;;;;;;;3.04;63.09;98291.38;5110227;28;20028;-56
2022/02/07 10:19:15;;;;;;;24.35;12.52;;;;;;;3.21;62.05;98304.19;5107750;28;20496;-51
2022/02/07 10:46:17;;;;;;;20.85;11.07;;;;;;;3.37;60.98;98289.81;5110434;28;20035;-54
2022/02/07 10:48:54;;;;;;;24.40;11.40;;;;;;;3.40;61.62;98289.59;5110048;28;20468;-55
2022/02/07 10:51:22;;;;;;;22.05;11.43;;;;;;;3.38;61.23;98287.06;5099994;28;20056;-48
2022/02/07 10:54:06;;;;;;;22.00;10.65;;;;;;;3.43;60.82;98286.72;5109574;28;20027;-52
2022/02/07 10:56:40;;;;;;;22.25;11.48;;;;;;;3.47;60.88;98293.47;5109744;28;20020;-49
2022/02/07 10:59:09;;;;;;;23.80;11.32;;;;;;;3.41;60.94;98293.94;5110581;28;20487;-47
2022/02/07 11:04:57;;;;;;;20.95;11.05;;;;;;;3.39;61.03;98286.09;5104476;28;20113;-52
2022/02/07 11:07:13;;;;;;;19.38;11.07;;;;;;;3.31;61.24;98283.19;5106931;28;20043;-54
2022/02/07 11:09:57;;;;;;;18.17;10.50;;;;;;;3.30;60.95;98284.97;5113127;28;20034;-51
2022/02/07 11:27:39;;;;;;;25.52;10.98;;;;;;;3.35;61.70;98289.06;5111164;28;20089;-54
2022/02/07 11:30:10;;;;;;;20.85;10.90;;;;;;;3.34;61.50;98293.53;5101244;28;20088;-49
2022/02/07 11:32:39;;;;;;;18.60;11.13;;;;;;;3.26;61.78;98291.47;5112479;28;20111;-50
2022/02/07 11:35:06;;;;;;;17.90;10.85;;;;;;;3.07;62.23;98281.44;5112172;28;20031;-50
2022/02/07 11:37:32;;;;;;;17.98;10.85;;;;;;;3.00;62.86;98288.97;5112050;28;20039;-54
2022/02/07 11:39:57;;;;;;;20.80;10.07;;;;;;;2.94;62.68;98299.16;5103408;28;20032;-51
2022/02/07 11:42:23;;;;;;;17.50;10.35;;;;;;;2.85;63.36;98292.75;5113479;28;20092;-53
2022/02/07 11:44:51;;;;;;;21.30;11.05;;;;;;;2.87;63.24;98285.53;5109984;28;20051;-54
2022/02/07 11:47:21;;;;;;;23.90;11.57;;;;;;;2.81;64.04;98301.84;5098468;28;20492;-51
2022/02/07 11:49:49;;;;;;;20.77;11.00;;;;;;;2.70;63.84;98295.56;5113895;28;20110;-53
2022/02/07 11:52:43;;;;;;;22.75;10.80;;;;;;;2.81;63.18;98301.84;5113030;28;20031;-51
2022/02/07 11:55:12;;;;;;;19.42;11.32;;;;;;;2.66;63.84;98304.69;5100848;28;20476;-50
2022/02/07 11:57:41;;;;;;;17.83;11.07;;;;;;;2.54;64.25;98297.63;5096891;28;20046;-53
2022/02/07 12:00:18;;;;;;;20.77;10.85;;;;;;;2.53;64.37;98307.38;5113080;28;20024;-50
2022/02/07 12:02:49;;;;;;;24.17;11.60;;;;;;;2.42;65.34;98309.91;5111291;28;20031;-56
2022/02/07 12:05:23;;;;;;;25.77;12.35;;;;;;;2.44;65.58;98308.88;5111534;28;20384;-58
2022/02/07 12:08:06;;;;;;;24.63;12.05;;;;;;;2.41;65.64;98306.44;5098093;28;20545;-60
2022/02/07 12:10:39;;;;;;;22.23;11.65;;;;;;;2.33;65.50;98289.44;5112874;27;20564;-61
2022/02/07 12:13:30;;;;;;;20.95;11.13;;;;;;;2.49;65.08;98297.13;5110438;28;20138;-55
2022/02/07 12:15:58;;;;;;;21.38;12.23;;;;;;;2.35;65.64;98291.00;5099390;28;20100;-57
2022/02/07 12:18:25;;;;;;;23.35;11.35;;;;;;;2.42;64.85;98287.00;5102445;28;20373;-56
2022/02/07 12:20:54;;;;;;;22.58;11.68;;;;;;;2.38;65.34;98288.16;5111585;28;20040;-55
2022/02/07 12:23:26;;;;;;;26.17;11.52;;;;;;;2.28;65.61;98287.13;5103037;28;20054;-52
2022/02/07 12:25:56;;;;;;;26.10;12.23;;;;;;;2.31;66.15;98294.84;5112391;28;20026;-55
2022/02/07 12:28:42;;;;;;;24.55;11.85;;;;;;;2.36;65.70;98287.41;5096566;28;20024;-55
2022/02/07 12:31:18;;;;;;;20.80;12.10;;;;;;;2.37;65.75;98294.38;5109133;28;20024;-52
2022/02/07 12:34:02;;;;;;;20.33;11.68;;;;;;;2.41;64.93;98280.03;5094175;28;20378;-57
2022/02/07 12:36:32;;;;;;;24.65;12.55;;;;;;;2.35;65.15;98269.88;5102368;28;20031;-54
2022/02/07 12:39:00;;;;;;;22.55;12.15;;;;;;;2.35;65.25;98280.44;5107952;28;20035;-53
2022/02/07 12:41:26;;;;;;;19.23;11.77;;;;;;;2.28;66.08;98276.56;5111921;28;20047;-54
2022/02/07 12:43:54;;;;;;;25.70;12.52;;;;;;;2.29;65.85;98275.63;5099359;28;20039;-54
2022/02/07 12:46:23;;;;;;;29.20;13.00;;;;;;;2.34;65.39;98297.25;5112278;28;20042;-53
2022/02/07 12:48:55;;;;;;;26.45;13.82;;;;;;;2.34;65.44;98283.22;5102421;28;20026;-57
2022/02/07 12:51:23;;;;;;;20.58;12.43;;;;;;;2.37;65.31;98272.44;5108437;28;20039;-56
2022/02/07 12:53:52;;;;;;;21.67;12.15;;;;;;;2.40;64.60;98288.06;5111767;28;20385;-54
2022/02/07 12:56:18;;;;;;;23.38;12.23;;;;;;;2.36;64.64;98283.94;5105850;28;20484;-56
2022/02/07 12:58:44;;;;;;;23.67;12.63;;;;;;;2.24;64.95;98288.31;5099742;28;20020;-68
2022/02/07 13:01:16;;;;;;;26.17;12.63;;;;;;;2.28;65.27;98284.50;5109836;28;20063;-64
2022/02/07 13:03:52;;;;;;;22.25;12.70;;;;;;;2.16;65.36;98270.38;5098662;28;20455;-63
2022/02/07 13:06:23;;;;;;;21.05;12.48;;;;;;;2.25;64.96;98280.25;5110565;28;20040;-64
2022/02/07 13:08:49;;;;;;;23.02;12.27;;;;;;;2.24;64.77;98289.13;5110651;28;20023;-56
2022/02/07 13:11:26;;;;;;;22.40;12.10;;;;;;;2.26;64.16;98278.47;5107200;28;20051;-55
2022/02/07 13:13:53;;;;;;;22.45;11.85;;;;;;;2.23;64.22;98289.25;5111907;28;20027;-54
2022/02/07 13:16:20;;;;;;;22.80;12.27;;;;;;;2.17;64.84;98293.16;5093156;28;20469;-56
2022/02/07 13:18:47;;;;;;;26.05;12.13;;;;;;;2.18;64.13;98284.28;5110927;28;20114;-54
2022/02/07 13:21:17;;;;;;;19.35;11.38;;;;;;;2.12;64.71;98269.72;5093886;28;20366;-56
2022/02/07 13:23:43;;;;;;;25.30;12.35;;;;;;;2.10;64.44;98265.53;5089935;28;20172;-55
2022/02/07 13:26:13;;;;;;;26.95;12.68;;;;;;;2.21;64.77;98293.81;5099906;28;20097;-52
2022/02/07 13:28:42;;;;;;;28.13;13.30;;;;;;;2.20;64.37;98282.38;5111054;28;20457;-55
2022/02/07 13:31:09;;;;;;;22.02;12.45;;;;;;;2.22;64.29;98269.09;5098086;28;20389;-58
2022/02/07 13:33:49;;;;;;;21.50;12.23;;;;;;;2.31;64.41;98272.88;5103768;28;20062;-54
2022/02/07 13:36:45;;;;;;;25.48;12.68;;;;;;;2.32;64.45;98275.38;5103827;28;20552;-55
2022/02/07 13:39:11;;;;;;;23.92;12.70;;;;;;;2.27;64.24;98266.97;5105030;28;20488;-51
2022/02/07 13:41:38;;;;;;;24.40;13.02;;;;;;;2.31;63.95;98278.97;5097603;28;20050;-50
2022/02/07 13:44:06;;;;;;;27.77;14.05;;;;;;;2.34;63.69;98277.94;5110278;28;20031;-53
2022/02/07 13:46:33;;;;;;;22.67;12.63;;;;;;;2.27;63.79;98269.59;5110787;28;20066;-56
2022/02/07 13:49:00;;;;;;;24.67;12.02;;;;;;;2.21;64.39;98268.22;5108829;28;20028;-52
2022/02/07 13:51:28;;;;;;;20.25;11.85;;;;;;;2.20;64.26;98257.78;5108458;28;20203;-62
2022/02/07 13:53:55;;;;;;;24.38;13.77;;;;;;;2.21;64.10;98267.41;5105650;28;20024;-50
2022/02/07 13:56:29;;;;;;;25.25;12.23;;;;;;;2.22;64.08;98262.00;5110201;28;20034;-54
2022/02/07 13:58:55;;;;;;;22.50;12.35;;;;;;;2.22;64.09;98274.38;5110511;28;20092;-54
2022/02/07 14:01:23;;;;;;;22.88;12.50;;;;;;;2.22;63.78;98279.66;5109842;28;20024;-55
2022/02/07 14:03:52;;;;;;;20.42;11.63;;;;;;;2.22;63.57;98280.47;5096768;28;20047;-52
2022/02/07 14:06:19;;;;;;;24.08;12.45;;;;;;;2.31;63.41;98276.34;5107429;28;20113;-63
2022/02/07 14:08:52;;;;;;;24.13;12.25;;;;;;;2.19;64.24;98279.88;5107862;28;20069;-54
2022/02/07 14:11:19;;;;;;;21.52;11.50;;;;;;;2.21;63.61;98272.69;5109442;28;20093;-53
2022/02/07 14:13:45;;;;;;;22.05;11.80;;;;;;;1.86;64.17;98243.38;5099505;28;20027;-51
2022/02/07 14:16:12;;;;;;;27.63;12.68;;;;;;;2.11;63.80;98288.34;5108553;28;20034;-53
2022/02/07 14:18:44;;;;;;;23.70;12.32;;;;;;;2.07;63.89;98279.78;5108712;28;20473;-52